createdAt,value
2023-01-15T00:01:23.347Z,60.00
2023-01-15T00:03:50.483Z,60.00
2023-01-15T00:06:17.980Z,59.50
2023-01-15T00:08:45.732Z,60.40
2023-01-15T00:11:13.805Z,59.90
2023-01-15T00:13:40.911Z,60.10
2023-01-15T00:16:10.367Z,60.30
2023-01-15T00:18:37.209Z,59.80
2023-01-15T00:21:06.074Z,60.30
2023-01-15T00:23:33.533Z,60.40
2023-01-15T00:26:00.211Z,59.80
2023-01-15T00:28:28.299Z,60.10
2023-01-15T00:30:55.072Z,59.70
2023-01-15T00:33:21.774Z,59.60
2023-01-15T00:35:48.655Z,59.60
2023-01-15T00:38:15.345Z,60.00
2023-01-15T00:40:42.026Z,59.90
2023-01-15T00:43:08.739Z,59.50
2023-01-15T00:45:36.830Z,59.70
2023-01-15T00:48:03.633Z,60.00
2023-01-15T00:50:30.297Z,60.30
2023-01-15T00:52:56.948Z,60.30
2023-01-15T00:55:23.676Z,60.30
2023-01-15T00:57:50.367Z,60.00
2023-01-15T01:00:17.652Z,60.30
2023-01-15T01:02:45.713Z,61.30
2023-01-15T01:05:12.425Z,60.00
2023-01-15T01:07:39.114Z,59.80
2023-01-15T01:10:06.770Z,60.00
2023-01-15T01:12:33.505Z,60.00
2023-01-15T01:15:00.177Z,60.00
2023-01-15T01:17:27.211Z,60.50
2023-01-15T01:19:55.228Z,60.20
2023-01-15T01:22:21.886Z,60.50
2023-01-15T01:24:48.651Z,60.20
2023-01-15T01:27:15.369Z,60.80
2023-01-15T01:29:42.195Z,60.70
2023-01-15T01:32:08.875Z,61.00
2023-01-15T01:34:35.592Z,60.70
2023-01-15T01:37:03.639Z,61.20
2023-01-15T01:39:30.354Z,61.30
2023-01-15T01:41:57.087Z,60.90
2023-01-15T01:45:00.544Z,61.00
2023-01-15T01:47:29.582Z,61.60
2023-01-15T01:50:00.447Z,61.20
2023-01-15T01:52:36.610Z,60.90
2023-01-15T01:55:04.329Z,61.40
2023-01-15T01:57:31.118Z,61.50
2023-01-15T01:59:59.092Z,61.50
2023-01-15T02:02:26.250Z,61.30
2023-01-15T02:04:53.186Z,61.40
2023-01-15T02:07:19.841Z,61.60
2023-01-15T02:09:47.834Z,61.80
2023-01-15T02:12:23.083Z,62.10
2023-01-15T02:14:57.928Z,62.20
2023-01-15T02:17:33.727Z,62.40
2023-01-15T02:20:16.235Z,62.00
2023-01-15T02:22:54.717Z,61.80
2023-01-15T02:25:30.823Z,62.00
2023-01-15T02:28:04.136Z,61.70
2023-01-15T02:30:34.246Z,62.00
2023-01-15T02:33:06.641Z,62.30
2023-01-15T02:35:38.040Z,62.30
2023-01-15T02:38:08.189Z,61.70
2023-01-15T02:40:36.210Z,60.90
2023-01-15T02:43:06.511Z,60.50
2023-01-15T02:45:36.938Z,59.70
2023-01-15T02:48:08.466Z,59.30
2023-01-15T02:50:40.172Z,59.20
2023-01-15T02:53:10.592Z,58.70
2023-01-15T02:55:41.498Z,58.30
2023-01-15T02:58:13.969Z,58.60
2023-01-15T03:00:45.069Z,59.00
2023-01-15T03:03:16.563Z,58.80
2023-01-15T03:05:51.596Z,58.70
2023-01-15T03:08:18.634Z,59.10
2023-01-15T03:10:50.868Z,58.00
2023-01-15T03:13:23.875Z,56.80
2023-01-15T03:16:01.344Z,56.70
2023-01-15T03:18:32.538Z,56.40
2023-01-15T03:21:05.547Z,56.30
2023-01-15T03:23:38.137Z,56.70
2023-01-15T03:26:05.005Z,56.80
2023-01-15T03:28:36.614Z,56.90
2023-01-15T03:31:03.429Z,56.90
2023-01-15T03:33:30.451Z,57.20
2023-01-15T03:35:59.362Z,57.40
2023-01-15T03:38:29.392Z,57.20
2023-01-15T03:41:05.975Z,57.20
2023-01-15T03:43:45.758Z,56.10
2023-01-15T03:46:24.210Z,56.80
2023-01-15T03:48:59.604Z,55.90
2023-01-15T03:51:32.547Z,56.00
2023-01-15T03:54:02.044Z,56.20
2023-01-15T03:56:35.574Z,56.70
2023-01-15T03:59:09.402Z,56.10
2023-01-15T04:01:40.753Z,57.10
2023-01-15T04:04:08.398Z,56.60
2023-01-15T04:06:37.710Z,56.60
2023-01-15T04:09:06.890Z,56.90
2023-01-15T04:11:33.548Z,57.20
2023-01-15T04:14:00.333Z,57.60
2023-01-15T04:16:32.477Z,57.30
2023-01-15T04:18:59.609Z,57.40
2023-01-15T04:21:26.561Z,57.30
2023-01-15T04:23:53.355Z,57.20
2023-01-15T04:26:20.040Z,57.30
2023-01-15T04:28:46.747Z,56.90
2023-01-15T04:31:13.861Z,56.80
2023-01-15T04:33:41.909Z,56.90
2023-01-15T04:36:09.465Z,57.30
2023-01-15T04:38:37.523Z,57.40
2023-01-15T04:41:05.212Z,57.30
2023-01-15T04:43:31.941Z,57.40
2023-01-15T04:45:59.129Z,57.60
2023-01-15T04:48:26.338Z,57.10
2023-01-15T04:50:54.903Z,56.90
2023-01-15T04:53:21.586Z,57.00
2023-01-15T04:55:48.287Z,56.90
2023-01-15T04:58:14.987Z,56.80
2023-01-15T05:00:41.670Z,56.60
2023-01-15T05:03:08.361Z,56.60
2023-01-15T05:05:35.229Z,56.70
2023-01-15T05:08:03.800Z,56.80
2023-01-15T05:10:30.468Z,57.60
2023-01-15T05:12:57.150Z,56.90
2023-01-15T05:15:23.819Z,56.60
2023-01-15T05:17:50.478Z,56.60
2023-01-15T05:20:17.543Z,56.60
2023-01-15T05:22:44.179Z,56.70
2023-01-15T05:25:12.266Z,56.70
2023-01-15T05:27:38.980Z,56.60
2023-01-15T05:30:06.992Z,56.90
2023-01-15T05:32:33.682Z,56.90
2023-01-15T05:35:00.422Z,57.10
2023-01-15T05:37:30.184Z,57.00
2023-01-15T05:39:56.887Z,56.80
2023-01-15T05:42:24.929Z,56.90
2023-01-15T05:44:51.679Z,56.90
2023-01-15T05:47:18.389Z,56.90
2023-01-15T05:49:45.109Z,56.80
2023-01-15T05:52:11.796Z,56.90
2023-01-15T05:54:38.531Z,56.90
2023-01-15T05:57:05.215Z,56.90
2023-01-15T05:59:33.797Z,56.80
2023-01-15T06:02:00.778Z,56.80
2023-01-15T06:04:27.511Z,57.50
2023-01-15T06:06:55.632Z,57.40
2023-01-15T06:09:22.957Z,56.60
2023-01-15T06:11:50.107Z,56.60
2023-01-15T06:14:17.282Z,56.30
2023-01-15T06:16:45.617Z,56.40
2023-01-15T06:19:13.270Z,56.70
2023-01-15T06:21:40.418Z,56.80
2023-01-15T06:24:07.960Z,56.60
2023-01-15T06:26:34.726Z,56.80
2023-01-15T06:29:01.391Z,56.60
2023-01-15T06:31:28.146Z,56.50
2023-01-15T06:33:56.309Z,56.60
2023-01-15T06:36:26.086Z,56.40
2023-01-15T06:38:52.856Z,56.30
2023-01-15T06:41:20.856Z,56.00
2023-01-15T06:43:47.506Z,55.40
2023-01-15T06:46:16.112Z,55.80
2023-01-15T06:48:42.815Z,55.50
2023-01-15T06:51:10.804Z,55.80
2023-01-15T06:53:37.449Z,55.80
2023-01-15T06:56:04.268Z,55.80
2023-01-15T06:58:30.988Z,55.50
2023-01-15T07:00:57.785Z,55.80
2023-01-15T07:03:24.609Z,55.90
2023-01-15T07:05:51.346Z,55.70
2023-01-15T07:08:19.332Z,55.70
2023-01-15T07:10:45.980Z,55.50
2023-01-15T07:13:12.651Z,55.30
2023-01-15T07:15:39.377Z,55.50
2023-01-15T07:18:06.209Z,55.30
2023-01-15T07:20:32.888Z,55.30
2023-01-15T07:22:59.549Z,55.40
2023-01-15T07:25:27.787Z,55.20
2023-01-15T07:27:54.460Z,55.20
2023-01-15T07:30:21.299Z,55.10
2023-01-15T07:32:48.022Z,55.10
2023-01-15T07:35:14.916Z,55.30
2023-01-15T07:37:41.609Z,55.10
2023-01-15T07:40:09.810Z,55.60
2023-01-15T07:42:38.188Z,55.10
2023-01-15T07:45:05.944Z,55.20
2023-01-15T07:47:32.891Z,55.20
2023-01-15T07:50:00.185Z,55.20
2023-01-15T07:52:26.925Z,55.20
2023-01-15T07:54:53.641Z,55.20
2023-01-15T07:57:22.118Z,55.10
2023-01-15T07:59:50.669Z,55.10
2023-01-15T08:02:17.467Z,55.00
2023-01-15T08:04:44.754Z,55.00
2023-01-15T08:07:11.420Z,55.10
2023-01-15T08:09:38.092Z,55.00
2023-01-15T08:12:04.912Z,54.90
2023-01-15T08:14:31.560Z,54.30
2023-01-15T08:16:59.609Z,54.60
2023-01-15T08:19:26.311Z,54.80
2023-01-15T08:21:52.977Z,54.70
2023-01-15T08:24:19.787Z,54.50
2023-01-15T08:26:46.467Z,54.30
2023-01-15T08:29:13.117Z,53.80
2023-01-15T08:31:39.829Z,53.90
2023-01-15T08:34:08.013Z,54.40
2023-01-15T08:36:34.792Z,54.00
2023-01-15T08:39:01.580Z,54.20
2023-01-15T08:41:28.298Z,54.10
2023-01-15T08:43:54.931Z,53.70
2023-01-15T08:46:21.602Z,54.00
2023-01-15T08:48:48.372Z,54.00
2023-01-15T08:51:16.424Z,53.80
2023-01-15T08:53:43.082Z,53.60
2023-01-15T08:56:12.901Z,53.80
2023-01-15T08:58:39.613Z,53.90
2023-01-15T09:01:07.372Z,54.00
2023-01-15T09:03:34.474Z,53.90
2023-01-15T09:06:02.601Z,53.60
2023-01-15T09:08:30.604Z,54.20
2023-01-15T09:10:57.872Z,54.20
2023-01-15T09:13:24.658Z,53.50
2023-01-15T09:15:51.646Z,54.30
2023-01-15T09:18:18.316Z,53.70
2023-01-15T09:20:44.993Z,54.30
2023-01-15T09:23:11.692Z,54.20
2023-01-15T09:25:39.842Z,53.90
2023-01-15T09:28:06.518Z,53.80
2023-01-15T09:30:33.287Z,54.00
2023-01-15T09:32:59.957Z,53.90
2023-01-15T09:35:26.635Z,54.10
2023-01-15T09:37:53.643Z,54.00
2023-01-15T09:40:34.784Z,54.10
2023-01-15T09:43:09.120Z,53.90
2023-01-15T09:45:45.536Z,54.00
2023-01-15T09:48:27.268Z,54.00
2023-01-15T09:51:08.723Z,54.50
2023-01-15T09:53:50.372Z,54.00
2023-01-15T09:56:21.340Z,53.70
2023-01-15T09:58:50.759Z,54.00
2023-01-15T10:01:20.439Z,54.10
2023-01-15T10:03:53.844Z,54.10
2023-01-15T10:06:24.081Z,54.00
2023-01-15T10:08:54.782Z,54.10
2023-01-15T10:11:28.594Z,54.10
2023-01-15T10:14:03.829Z,53.80
2023-01-15T10:16:32.354Z,53.80
2023-01-15T10:19:00.515Z,53.80
2023-01-15T10:21:35.421Z,53.40
2023-01-15T10:24:06.389Z,53.50
2023-01-15T10:26:36.226Z,53.60
2023-01-15T10:29:11.590Z,53.30
2023-01-15T10:31:49.275Z,53.20
2023-01-15T10:34:53.449Z,53.80
2023-01-15T10:37:26.055Z,53.60
2023-01-15T10:40:05.744Z,54.00
2023-01-15T10:42:42.278Z,53.90
2023-01-15T10:45:16.154Z,53.80
2023-01-15T10:47:45.480Z,53.70
2023-01-15T10:50:18.277Z,53.40
2023-01-15T10:52:49.183Z,53.20
2023-01-15T10:55:21.178Z,53.60
2023-01-15T10:58:08.985Z,53.30
2023-01-15T11:00:39.415Z,53.60
2023-01-15T11:03:12.203Z,53.70
2023-01-15T11:05:38.978Z,53.90
2023-01-15T11:08:45.158Z,53.40
2023-01-15T11:10:55.210Z,53.30
2023-01-15T11:13:23.961Z,53.50
2023-01-15T11:15:52.120Z,53.60
2023-01-15T11:18:25.276Z,53.30
2023-01-15T11:20:52.144Z,53.30
2023-01-15T11:23:20.817Z,53.10
2023-01-15T11:25:53.117Z,53.10
2023-01-15T11:28:32.581Z,53.20
2023-01-15T11:31:00.940Z,53.60
2023-01-15T11:33:29.568Z,53.40
2023-01-15T11:35:58.513Z,54.00
2023-01-15T11:38:26.746Z,54.10
2023-01-15T11:40:54.817Z,53.50
2023-01-15T11:43:23.197Z,53.60
2023-01-15T11:45:51.295Z,53.70
2023-01-15T11:48:20.849Z,53.40
2023-01-15T11:50:52.849Z,52.90
2023-01-15T11:53:22.516Z,52.40
2023-01-15T11:55:55.370Z,52.50
2023-01-15T11:58:22.471Z,52.40
2023-01-15T12:00:50.745Z,52.80
2023-01-15T12:03:20.804Z,52.90
2023-01-15T12:05:55.566Z,52.50
2023-01-15T12:08:36.729Z,52.50
2023-01-15T12:11:25.575Z,52.50
2023-01-15T12:14:05.052Z,52.00
2023-01-15T12:16:40.979Z,51.20
2023-01-15T12:19:15.440Z,51.00
2023-01-15T12:21:56.555Z,50.80
2023-01-15T12:24:41.151Z,50.30
2023-01-15T12:27:25.677Z,50.10
2023-01-15T12:29:58.336Z,50.20
2023-01-15T12:32:28.086Z,51.70
2023-01-15T12:34:59.636Z,50.70
2023-01-15T12:37:32.087Z,51.90
2023-01-15T12:40:06.721Z,52.00
2023-01-15T12:42:35.509Z,51.20
2023-01-15T12:45:06.046Z,51.10
2023-01-15T12:47:38.613Z,51.60
2023-01-15T12:50:24.033Z,51.40
2023-01-15T12:52:58.816Z,50.00
2023-01-15T12:55:29.030Z,50.90
2023-01-15T12:57:59.360Z,51.20
2023-01-15T13:00:30.091Z,51.30
2023-01-15T13:03:07.188Z,51.50
2023-01-15T13:05:40.174Z,50.80
2023-01-15T13:08:12.570Z,51.10
2023-01-15T13:10:41.271Z,50.90
2023-01-15T13:13:16.936Z,51.50
2023-01-15T13:16:03.152Z,49.00
2023-01-15T13:18:37.433Z,50.60
2023-01-15T13:21:12.216Z,51.20
2023-01-15T13:24:04.243Z,50.10
2023-01-15T13:27:00.043Z,50.90
2023-01-15T13:29:38.464Z,50.30
2023-01-15T13:32:13.170Z,50.10
2023-01-15T13:34:45.817Z,49.20
2023-01-15T13:37:21.682Z,49.50
2023-01-15T13:39:51.564Z,48.90
2023-01-15T13:42:21.462Z,47.80
2023-01-15T13:44:50.584Z,47.70
2023-01-15T13:47:21.721Z,50.10
2023-01-15T13:49:51.022Z,48.50
2023-01-15T13:52:24.264Z,49.70
2023-01-15T13:54:52.472Z,49.80
2023-01-15T13:57:25.492Z,49.30
2023-01-15T13:59:52.219Z,49.10
2023-01-15T14:02:24.648Z,47.20
2023-01-15T14:04:52.202Z,47.70
2023-01-15T14:07:22.583Z,47.10
2023-01-15T14:09:50.063Z,48.90
2023-01-15T14:12:27.798Z,49.10
2023-01-15T14:15:08.592Z,48.30
2023-01-15T14:18:02.721Z,48.20
2023-01-15T14:20:38.932Z,49.20
2023-01-15T14:23:31.085Z,49.70
2023-01-15T14:26:09.748Z,47.70
2023-01-15T14:28:54.183Z,48.80
2023-01-15T14:31:37.082Z,49.20
2023-01-15T14:34:17.046Z,50.80
2023-01-15T14:36:52.309Z,50.70
2023-01-15T14:39:41.334Z,49.50
2023-01-15T14:42:13.845Z,49.80
2023-01-15T14:44:42.599Z,50.20
2023-01-15T14:47:20.363Z,49.80
2023-01-15T14:49:47.042Z,50.60
2023-01-15T14:52:13.810Z,50.60
2023-01-15T14:54:43.757Z,50.50
2023-01-15T14:57:11.208Z,50.00
2023-01-15T14:59:42.477Z,50.30
2023-01-15T15:02:20.443Z,49.20
2023-01-15T15:04:50.688Z,49.30
2023-01-15T15:07:20.146Z,50.20
2023-01-15T15:09:55.611Z,50.40
2023-01-15T15:12:31.954Z,49.00
2023-01-15T15:15:02.730Z,48.40
2023-01-15T15:17:37.052Z,49.60
2023-01-15T15:20:22.625Z,49.30
2023-01-15T15:22:55.092Z,49.60
2023-01-15T15:25:27.176Z,50.40
2023-01-15T15:28:02.303Z,49.50
2023-01-15T15:30:32.133Z,49.70
2023-01-15T15:32:59.865Z,49.70
2023-01-15T15:35:29.130Z,50.10
2023-01-15T15:37:57.895Z,49.70
2023-01-15T15:40:31.849Z,49.20
2023-01-15T15:43:06.242Z,49.20
2023-01-15T15:45:32.910Z,50.80
2023-01-15T15:47:59.679Z,49.90
2023-01-15T15:50:28.274Z,49.60
2023-01-15T15:52:55.389Z,50.60
2023-01-15T15:55:23.344Z,50.00
2023-01-15T15:57:55.518Z,49.90
2023-01-15T16:00:28.316Z,50.00
2023-01-15T16:02:55.477Z,49.40
2023-01-15T16:05:24.280Z,50.40
2023-01-15T16:07:51.462Z,50.90
2023-01-15T16:10:24.347Z,49.80
2023-01-15T16:12:54.712Z,49.80
2023-01-15T16:15:25.355Z,51.10
2023-01-15T16:17:52.616Z,50.70
2023-01-15T16:20:20.691Z,50.00
2023-01-15T16:22:53.782Z,50.90
2023-01-15T16:25:23.623Z,50.20
2023-01-15T16:27:50.548Z,49.60
2023-01-15T16:30:19.800Z,49.20
2023-01-15T16:32:47.511Z,51.10
2023-01-15T16:35:18.135Z,50.40
2023-01-15T16:37:47.609Z,50.10
2023-01-15T16:40:25.493Z,50.40
2023-01-15T16:43:04.017Z,49.70
2023-01-15T16:45:33.068Z,50.10
2023-01-15T16:48:11.800Z,50.50
2023-01-15T16:50:40.014Z,50.00
2023-01-15T16:53:27.727Z,50.40
2023-01-15T16:55:54.469Z,50.10
2023-01-15T16:58:32.151Z,49.50
2023-01-15T17:01:01.119Z,49.30
2023-01-15T17:03:30.069Z,49.50
2023-01-15T17:05:59.904Z,49.80
2023-01-15T17:08:32.853Z,49.50
2023-01-15T17:11:01.580Z,49.90
2023-01-15T17:13:33.134Z,50.40
2023-01-15T17:16:17.195Z,50.50
2023-01-15T17:18:45.003Z,50.50
2023-01-15T17:21:16.234Z,49.60
2023-01-15T17:23:43.041Z,50.00
2023-01-15T17:26:17.023Z,50.80
2023-01-15T17:28:43.758Z,50.10
2023-01-15T17:31:24.396Z,50.30
2023-01-15T17:33:51.274Z,50.50
2023-01-15T17:36:17.959Z,50.30
2023-01-15T17:38:45.022Z,50.30
2023-01-15T17:41:12.701Z,50.00
2023-01-15T17:43:39.544Z,50.00
2023-01-15T17:46:06.500Z,50.20
2023-01-15T17:48:34.915Z,49.80
2023-01-15T17:51:02.601Z,49.40
2023-01-15T17:53:29.483Z,50.00
2023-01-15T17:55:56.175Z,50.80
2023-01-15T17:58:22.848Z,50.00
2023-01-15T18:00:50.190Z,49.80
2023-01-15T18:03:20.656Z,50.10
2023-01-15T18:05:50.183Z,50.10
2023-01-15T18:08:17.123Z,50.50
2023-01-15T18:10:43.818Z,50.80
2023-01-15T18:13:10.566Z,50.40
2023-01-15T18:15:37.290Z,50.60
2023-01-15T18:18:04.242Z,50.30
2023-01-15T18:20:31.179Z,50.90
2023-01-15T18:22:59.194Z,50.40
2023-01-15T18:25:26.263Z,50.90
2023-01-15T18:27:53.011Z,50.50
2023-01-15T18:30:19.863Z,50.30
2023-01-15T18:32:46.606Z,50.70
2023-01-15T18:35:13.310Z,50.50
2023-01-15T18:37:40.020Z,50.00
2023-01-15T18:40:10.677Z,50.40
2023-01-15T18:42:38.798Z,50.40
2023-01-15T18:45:06.244Z,50.10
2023-01-15T18:47:32.916Z,50.00
2023-01-15T18:49:59.585Z,50.30
2023-01-15T18:52:26.266Z,50.00
2023-01-15T18:54:53.612Z,49.60
2023-01-15T18:57:22.186Z,50.10
2023-01-15T18:59:48.889Z,50.30
2023-01-15T19:02:16.110Z,50.90
2023-01-15T19:04:42.974Z,50.60
2023-01-15T19:07:10.584Z,50.50
2023-01-15T19:09:37.907Z,50.80
2023-01-15T19:12:05.568Z,50.10
2023-01-15T19:14:34.117Z,49.90
2023-01-15T19:17:00.816Z,49.50
2023-01-15T19:19:27.689Z,50.20
2023-01-15T19:21:54.715Z,50.00
2023-01-15T19:24:21.473Z,49.30
2023-01-15T19:26:48.112Z,49.50
2023-01-15T19:29:14.777Z,50.00
2023-01-15T19:31:42.903Z,50.00
2023-01-15T19:34:32.248Z,50.50
2023-01-15T19:36:56.307Z,49.90
2023-01-15T19:39:23.022Z,50.10
2023-01-15T19:41:49.669Z,49.60
2023-01-15T19:44:16.363Z,49.80
2023-01-15T19:46:45.325Z,50.00
2023-01-15T19:49:17.136Z,49.50
2023-01-15T19:51:43.762Z,49.80
2023-01-15T19:54:10.438Z,49.40
2023-01-15T19:56:37.097Z,49.60
2023-01-15T19:59:03.786Z,49.50
2023-01-15T20:01:30.520Z,49.90
2023-01-15T20:03:58.643Z,49.40
2023-01-15T20:06:25.351Z,49.50
2023-01-15T20:08:52.055Z,49.10
2023-01-15T20:11:18.703Z,48.50
2023-01-15T20:13:45.383Z,48.90
2023-01-15T20:16:14.184Z,49.50
2023-01-15T20:18:41.182Z,49.30
2023-01-15T20:21:09.406Z,49.10
2023-01-15T20:23:37.205Z,48.70
2023-01-15T20:26:05.642Z,49.00
2023-01-15T20:28:32.390Z,49.20
2023-01-15T20:30:59.219Z,49.40
2023-01-15T20:33:25.950Z,50.00
2023-01-15T20:35:52.675Z,50.30
2023-01-15T20:38:20.947Z,50.30
2023-01-15T20:40:47.613Z,50.20
2023-01-15T20:43:15.742Z,50.20
2023-01-15T20:45:42.602Z,49.90
2023-01-15T20:48:11.877Z,49.80
2023-01-15T20:50:40.758Z,49.70
2023-01-15T20:53:09.455Z,50.10
2023-01-15T20:55:54.464Z,50.00
2023-01-15T20:58:24.178Z,50.30
2023-01-15T21:00:51.008Z,50.60
2023-01-15T21:03:18.129Z,50.00
2023-01-15T21:05:45.060Z,50.10
2023-01-15T21:08:11.934Z,50.60
2023-01-15T21:10:40.179Z,50.30
2023-01-15T21:13:06.991Z,49.80
2023-01-15T21:15:36.542Z,49.80
2023-01-15T21:18:03.320Z,50.30
2023-01-15T21:20:30.025Z,50.50
2023-01-15T21:22:57.443Z,50.30
2023-01-15T21:25:24.315Z,50.60
2023-01-15T21:27:52.346Z,50.80
2023-01-15T21:30:19.281Z,50.30
2023-01-15T21:32:46.002Z,50.90
2023-01-15T21:35:12.684Z,50.30
2023-01-15T21:37:39.420Z,50.80
2023-01-15T21:40:07.616Z,51.40
2023-01-15T21:42:34.288Z,50.40
2023-01-15T21:45:02.483Z,50.50
2023-01-15T21:47:29.163Z,50.70
2023-01-15T21:49:55.925Z,50.80
2023-01-15T21:52:22.686Z,51.10
2023-01-15T21:54:49.343Z,51.00
2023-01-15T21:57:16.117Z,50.70
2023-01-15T21:59:42.755Z,50.60
2023-01-15T22:02:13.466Z,51.10
2023-01-15T22:04:40.560Z,50.90
2023-01-15T22:07:07.270Z,51.10
2023-01-15T22:09:33.943Z,52.00
2023-01-15T22:12:00.586Z,52.10
2023-01-15T22:14:29.164Z,52.30
2023-01-15T22:16:58.017Z,52.30
2023-01-15T22:19:27.938Z,52.30
2023-01-15T22:21:56.594Z,52.30
2023-01-15T22:24:26.396Z,52.30
2023-01-15T22:26:53.142Z,52.20
2023-01-15T22:29:20.039Z,52.30
2023-01-15T22:31:46.779Z,52.50
2023-01-15T22:34:13.471Z,52.70
2023-01-15T22:36:41.533Z,52.70
2023-01-15T22:39:08.265Z,51.80
2023-01-15T22:41:35.195Z,52.80
2023-01-15T22:44:01.969Z,52.60
2023-01-15T22:46:28.686Z,52.40
2023-01-15T22:48:55.327Z,52.50
2023-01-15T22:51:21.994Z,52.60
2023-01-15T22:53:52.790Z,52.70
2023-01-15T22:56:19.533Z,51.70
2023-01-15T22:58:46.364Z,52.70
2023-01-15T23:01:13.246Z,52.90
2023-01-15T23:03:40.534Z,52.70
2023-01-15T23:06:10.027Z,52.70
2023-01-15T23:08:37.378Z,52.70
2023-01-15T23:11:10.616Z,52.90
2023-01-15T23:13:37.904Z,52.70
2023-01-15T23:16:05.361Z,52.80
2023-01-15T23:18:32.241Z,52.70
2023-01-15T23:21:02.616Z,52.40
2023-01-15T23:23:29.476Z,52.70
2023-01-15T23:25:56.171Z,52.80
2023-01-15T23:28:24.386Z,52.80
2023-01-15T23:30:51.086Z,52.70
2023-01-15T23:33:17.766Z,52.90
2023-01-15T23:35:44.953Z,52.80
2023-01-15T23:38:11.651Z,52.80
2023-01-15T23:40:39.450Z,53.80
2023-01-15T23:43:06.360Z,53.30
2023-01-15T23:45:36.936Z,53.30
2023-01-15T23:48:03.838Z,53.30
2023-01-15T23:50:30.527Z,53.20
2023-01-15T23:52:57.229Z,53.50
2023-01-15T23:55:23.924Z,53.60
2023-01-15T23:57:50.602Z,53.70
